createdAt,value
2018-09-22T00:02:37.479Z,9.90
2018-09-22T00:05:41.819Z,9.90
2018-09-22T00:08:46.099Z,9.90
2018-09-22T00:11:50.478Z,10.00
2018-09-22T00:14:54.817Z,10.00
2018-09-22T00:17:59.192Z,10.10
2018-09-22T00:21:03.487Z,10.10
2018-09-22T00:24:07.828Z,10.20
2018-09-22T00:27:12.210Z,10.30
2018-09-22T00:30:16.605Z,10.30
2018-09-22T00:33:20.909Z,10.40
2018-09-22T00:36:25.227Z,10.40
2018-09-22T00:39:29.546Z,10.50
2018-09-22T00:42:34.026Z,10.50
2018-09-22T00:45:38.279Z,10.50
2018-09-22T00:48:42.760Z,10.50
2018-09-22T00:51:47.139Z,10.50
2018-09-22T00:54:51.452Z,10.50
2018-09-22T00:57:55.792Z,10.50
2018-09-22T01:01:00.058Z,10.50
2018-09-22T01:04:04.351Z,10.40
2018-09-22T01:07:08.658Z,10.40
2018-09-22T01:10:12.977Z,10.30
2018-09-22T01:13:17.384Z,10.30
2018-09-22T01:16:21.740Z,10.30
2018-09-22T01:19:25.965Z,10.30
2018-09-22T01:22:30.270Z,10.30
2018-09-22T01:25:34.585Z,10.30
2018-09-22T01:28:38.888Z,10.20
2018-09-22T01:31:43.466Z,10.20
2018-09-22T01:34:47.733Z,10.10
2018-09-22T01:37:52.401Z,10.10
2018-09-22T01:40:56.689Z,10.10
2018-09-22T01:44:01.001Z,10.10
2018-09-22T01:47:05.264Z,10.10
2018-09-22T01:50:09.518Z,10.20
2018-09-22T01:53:13.797Z,10.30
2018-09-22T01:56:18.089Z,10.40
2018-09-22T01:59:22.413Z,10.40
2018-09-22T02:02:26.646Z,10.40
2018-09-22T02:05:30.955Z,10.50
2018-09-22T02:08:35.309Z,10.40
2018-09-22T02:11:39.603Z,10.40
2018-09-22T02:14:43.895Z,10.30
2018-09-22T02:17:48.263Z,10.20
2018-09-22T02:20:52.564Z,10.10
2018-09-22T02:23:56.876Z,10.00
2018-09-22T02:27:01.306Z,10.00
2018-09-22T02:30:05.861Z,9.90
2018-09-22T02:33:10.144Z,9.90
2018-09-22T02:36:14.485Z,9.80
2018-09-22T02:39:18.732Z,9.70
2018-09-22T02:42:23.009Z,9.60
2018-09-22T02:45:27.253Z,9.60
2018-09-22T02:48:31.546Z,9.50
2018-09-22T02:51:35.901Z,9.50
2018-09-22T02:54:40.184Z,9.50
2018-09-22T02:57:44.544Z,9.40
2018-09-22T03:00:48.837Z,9.40
2018-09-22T03:03:53.155Z,9.40
2018-09-22T03:06:57.476Z,9.40
2018-09-22T03:10:01.813Z,9.50
2018-09-22T03:13:06.134Z,9.50
2018-09-22T03:16:10.397Z,9.60
2018-09-22T03:19:14.624Z,9.70
2018-09-22T03:22:18.993Z,9.70
2018-09-22T03:25:23.304Z,9.80
2018-09-22T03:28:27.619Z,9.80
2018-09-22T03:31:31.961Z,9.80
2018-09-22T03:34:36.197Z,9.80
2018-09-22T03:37:40.482Z,9.80
2018-09-22T03:40:44.769Z,9.80
2018-09-22T03:43:49.165Z,9.80
2018-09-22T03:46:53.468Z,9.70
2018-09-22T03:49:57.750Z,9.80
2018-09-22T03:53:01.988Z,9.80
2018-09-22T03:56:06.307Z,9.80
2018-09-22T03:59:10.763Z,9.80
2018-09-22T04:02:15.224Z,9.70
2018-09-22T04:05:19.485Z,9.80
2018-09-22T04:08:23.822Z,9.90
2018-09-22T04:11:28.077Z,10.00
2018-09-22T04:14:32.445Z,10.00
2018-09-22T04:17:36.768Z,10.00
2018-09-22T04:20:41.093Z,9.90
2018-09-22T04:23:45.400Z,9.90
2018-09-22T04:26:51.539Z,9.90
2018-09-22T04:29:55.821Z,9.80
2018-09-22T04:33:00.077Z,9.80
2018-09-22T04:36:04.347Z,9.80
2018-09-22T04:39:10.093Z,9.80
2018-09-22T04:42:14.273Z,9.80
2018-09-22T04:45:18.602Z,9.90
2018-09-22T04:48:22.940Z,10.00
2018-09-22T04:51:27.753Z,10.10
2018-09-22T04:54:32.106Z,10.10
2018-09-22T04:57:36.430Z,10.00
2018-09-22T05:00:40.680Z,9.90
2018-09-22T05:03:44.916Z,9.80
2018-09-22T05:06:49.207Z,9.70
2018-09-22T05:09:53.512Z,9.60
2018-09-22T05:12:57.888Z,9.50
2018-09-22T05:16:02.181Z,8.90
2018-09-22T05:19:06.679Z,9.50
2018-09-22T05:22:10.898Z,9.40
2018-09-22T05:25:15.224Z,9.40
2018-09-22T05:28:19.704Z,9.30
2018-09-22T05:31:24.064Z,9.30
2018-09-22T05:34:28.394Z,9.30
2018-09-22T05:37:32.718Z,9.20
2018-09-22T05:40:37.029Z,9.10
2018-09-22T05:43:41.352Z,9.00
2018-09-22T05:46:45.666Z,9.00
2018-09-22T05:49:50.026Z,9.00
2018-09-22T05:52:54.312Z,9.00
2018-09-22T05:55:58.662Z,9.00
2018-09-22T05:59:02.928Z,9.00
2018-09-22T06:02:07.151Z,9.00
2018-09-22T06:05:11.513Z,9.10
2018-09-22T06:08:15.842Z,9.10
2018-09-22T06:11:20.136Z,9.20
2018-09-22T06:14:24.476Z,9.30
2018-09-22T06:17:28.783Z,9.30
2018-09-22T06:20:33.107Z,9.40
2018-09-22T06:23:37.542Z,9.50
2018-09-22T06:26:41.767Z,9.60
2018-09-22T06:29:46.312Z,9.70
2018-09-22T06:32:50.707Z,9.80
2018-09-22T06:35:55.029Z,9.90
2018-09-22T06:38:59.249Z,10.20
2018-09-22T06:42:03.541Z,10.40
2018-09-22T06:45:07.799Z,10.70
2018-09-22T06:48:12.124Z,10.80
2018-09-22T06:51:16.490Z,10.80
2018-09-22T06:54:20.848Z,10.70
2018-09-22T06:57:25.147Z,10.60
2018-09-22T07:00:29.489Z,10.50
2018-09-22T07:03:33.826Z,10.60
2018-09-22T07:06:38.170Z,10.80
2018-09-22T07:09:42.448Z,11.10
2018-09-22T07:12:46.799Z,11.30
2018-09-22T07:15:51.104Z,11.60
2018-09-22T07:18:55.385Z,11.70
2018-09-22T07:22:04.900Z,11.80
2018-09-22T07:25:09.224Z,11.70
2018-09-22T07:28:13.887Z,11.50
2018-09-22T07:31:18.270Z,11.40
2018-09-22T07:34:22.555Z,11.20
2018-09-22T07:37:26.880Z,11.30
2018-09-22T07:40:31.247Z,11.40
2018-09-22T07:43:35.577Z,11.60
2018-09-22T07:46:39.945Z,11.80
2018-09-22T07:49:44.163Z,11.90
2018-09-22T07:52:48.496Z,12.00
2018-09-22T07:55:52.811Z,12.10
2018-09-22T07:58:57.070Z,12.20
2018-09-22T08:02:01.365Z,12.30
2018-09-22T08:05:06.513Z,12.50
2018-09-22T08:08:10.823Z,12.60
2018-09-22T08:11:15.153Z,12.80
2018-09-22T08:14:19.486Z,13.00
2018-09-22T08:17:24.036Z,13.20
2018-09-22T08:20:28.272Z,13.40
2018-09-22T08:23:32.628Z,13.70
2018-09-22T08:26:37.531Z,13.70
2018-09-22T08:29:41.886Z,13.70
2018-09-22T08:32:46.198Z,13.80
2018-09-22T08:35:50.461Z,13.80
2018-09-22T08:38:54.854Z,13.80
2018-09-22T08:41:59.118Z,14.00
2018-09-22T08:45:03.563Z,14.30
2018-09-22T08:48:07.898Z,14.50
2018-09-22T08:51:12.274Z,14.50
2018-09-22T08:54:16.564Z,14.00
2018-09-22T08:57:20.821Z,13.60
2018-09-22T09:00:25.269Z,13.10
2018-09-22T09:03:29.536Z,12.70
2018-09-22T09:06:33.838Z,12.50
2018-09-22T09:09:38.071Z,12.60
2018-09-22T09:12:42.443Z,13.00
2018-09-22T09:15:46.802Z,13.20
2018-09-22T09:18:51.198Z,13.20
2018-09-22T09:21:55.553Z,12.90
2018-09-22T09:25:00.076Z,12.70
2018-09-22T09:28:04.468Z,12.80
2018-09-22T09:31:08.787Z,12.70
2018-09-22T09:34:13.078Z,12.70
2018-09-22T09:37:17.422Z,12.70
2018-09-22T09:40:21.749Z,12.90
2018-09-22T09:43:26.068Z,13.00
2018-09-22T09:46:30.289Z,13.20
2018-09-22T09:49:34.593Z,13.40
2018-09-22T09:52:38.866Z,13.70
2018-09-22T09:55:43.131Z,13.90
2018-09-22T09:58:47.459Z,14.10
2018-09-22T10:01:51.767Z,14.00
2018-09-22T10:04:56.156Z,14.00
2018-09-22T10:08:00.541Z,13.70
2018-09-22T10:11:04.813Z,13.50
2018-09-22T10:14:09.140Z,13.50
2018-09-22T10:17:13.736Z,13.50
2018-09-22T10:20:18.222Z,13.80
2018-09-22T10:23:22.478Z,14.10
2018-09-22T10:26:26.799Z,14.40
2018-09-22T10:29:31.145Z,14.80
2018-09-22T10:32:35.489Z,14.60
2018-09-22T10:35:39.788Z,14.40
2018-09-22T10:38:44.123Z,14.40
2018-09-22T10:41:48.440Z,14.20
2018-09-22T10:44:52.796Z,13.90
2018-09-22T10:47:57.150Z,14.00
2018-09-22T10:51:01.498Z,14.00
2018-09-22T10:54:05.860Z,14.00
2018-09-22T10:57:10.154Z,14.00
2018-09-22T11:00:14.521Z,14.20
2018-09-22T11:03:18.930Z,14.30
2018-09-22T11:06:23.233Z,14.30
2018-09-22T11:09:27.514Z,14.20
2018-09-22T11:12:31.792Z,14.30
2018-09-22T11:15:36.088Z,14.40
2018-09-22T11:18:40.490Z,14.60
2018-09-22T11:21:44.775Z,14.70
2018-09-22T11:24:49.128Z,14.70
2018-09-22T11:27:53.581Z,14.80
2018-09-22T11:30:57.880Z,14.90
2018-09-22T11:34:02.196Z,14.80
2018-09-22T11:37:06.692Z,14.70
2018-09-22T11:40:11.049Z,14.80
2018-09-22T11:43:15.341Z,15.00
2018-09-22T11:46:19.727Z,15.10
2018-09-22T11:49:24.104Z,15.10
2018-09-22T11:52:28.425Z,15.10
2018-09-22T11:55:32.663Z,15.00
2018-09-22T11:58:36.970Z,14.50
2018-09-22T12:01:41.246Z,14.00
2018-09-22T12:04:45.541Z,14.00
2018-09-22T12:07:49.817Z,14.00
2018-09-22T12:10:54.121Z,13.40
2018-09-22T12:13:58.448Z,13.00
2018-09-22T12:17:02.745Z,12.70
2018-09-22T12:20:07.101Z,12.40
2018-09-22T12:23:11.544Z,12.40
2018-09-22T12:26:15.919Z,12.70
2018-09-22T12:29:20.158Z,13.10
2018-09-22T12:32:24.614Z,13.40
2018-09-22T12:35:29.127Z,13.80
2018-09-22T12:38:33.416Z,14.20
2018-09-22T12:41:37.873Z,14.50
2018-09-22T12:44:42.341Z,14.70
2018-09-22T12:47:46.634Z,14.60
2018-09-22T12:50:50.981Z,14.30
2018-09-22T12:53:55.316Z,13.90
2018-09-22T12:56:59.563Z,13.70
2018-09-22T13:00:03.884Z,13.50
2018-09-22T13:03:08.275Z,13.20
2018-09-22T13:06:12.543Z,12.80
2018-09-22T13:09:16.888Z,12.40
2018-09-22T13:12:21.208Z,12.10
2018-09-22T13:15:25.529Z,12.20
2018-09-22T13:18:29.860Z,12.50
2018-09-22T13:21:34.201Z,12.70
2018-09-22T13:24:38.487Z,12.80
2018-09-22T13:27:42.859Z,12.80
2018-09-22T13:30:47.134Z,12.80
2018-09-22T13:33:51.452Z,13.00
2018-09-22T13:36:55.768Z,13.40
2018-09-22T13:40:00.092Z,13.50
2018-09-22T13:43:04.415Z,13.60
2018-09-22T13:46:08.896Z,13.60
2018-09-22T13:49:13.176Z,13.60
2018-09-22T13:52:17.432Z,13.40
2018-09-22T13:55:21.795Z,13.30
2018-09-22T13:58:26.113Z,13.40
2018-09-22T14:01:30.414Z,13.20
2018-09-22T14:04:34.780Z,13.10
2018-09-22T14:07:39.046Z,13.30
2018-09-22T14:10:43.366Z,13.30
2018-09-22T14:13:47.670Z,13.50
2018-09-22T14:16:52.028Z,13.60
2018-09-22T14:19:56.377Z,13.70
2018-09-22T14:23:00.701Z,13.80
2018-09-22T14:26:04.980Z,13.60
2018-09-22T14:29:09.301Z,13.40
2018-09-22T14:32:13.589Z,13.10
2018-09-22T14:35:17.979Z,13.10
2018-09-22T14:38:22.250Z,12.90
2018-09-22T14:41:26.552Z,12.50
2018-09-22T14:44:30.924Z,12.10
2018-09-22T14:47:35.271Z,11.80
2018-09-22T14:50:39.566Z,11.80
2018-09-22T14:53:43.949Z,11.90
2018-09-22T14:56:48.256Z,12.20
2018-09-22T14:59:52.545Z,12.30
2018-09-22T15:02:56.832Z,12.20
2018-09-22T15:06:01.265Z,12.20
2018-09-22T15:09:08.203Z,12.30
2018-09-22T15:12:12.586Z,12.30
2018-09-22T15:15:16.908Z,12.40
2018-09-22T15:18:21.215Z,12.60
2018-09-22T15:21:25.502Z,12.60
2018-09-22T15:24:29.813Z,12.60
2018-09-22T15:27:34.169Z,12.70
2018-09-22T15:30:38.494Z,12.80
2018-09-22T15:33:42.816Z,12.70
2018-09-22T15:36:47.192Z,12.50
2018-09-22T15:39:51.503Z,12.60
2018-09-22T15:42:55.808Z,12.80
2018-09-22T15:46:00.255Z,12.90
2018-09-22T15:49:04.512Z,13.00
2018-09-22T15:52:08.864Z,13.20
2018-09-22T15:55:13.341Z,13.40
2018-09-22T15:58:17.685Z,13.40
2018-09-22T16:01:22.048Z,13.30
2018-09-22T16:04:26.353Z,13.10
2018-09-22T16:07:30.674Z,12.90
2018-09-22T16:10:35.004Z,12.70
2018-09-22T16:13:39.331Z,12.50
2018-09-22T16:16:43.623Z,12.40
2018-09-22T16:19:47.959Z,12.30
2018-09-22T16:22:52.380Z,12.40
2018-09-22T16:25:56.698Z,12.40
2018-09-22T16:29:01.040Z,12.50
2018-09-22T16:32:05.347Z,12.50
2018-09-22T16:35:09.839Z,12.50
2018-09-22T16:38:14.181Z,12.50
2018-09-22T16:41:18.646Z,12.40
2018-09-22T16:44:22.963Z,12.30
2018-09-22T16:47:27.263Z,12.30
2018-09-22T16:50:31.541Z,12.30
2018-09-22T16:53:35.841Z,12.30
2018-09-22T16:56:40.223Z,12.10
2018-09-22T16:59:44.620Z,12.00
2018-09-22T17:02:48.976Z,12.00
2018-09-22T17:05:53.311Z,11.80
2018-09-22T17:08:57.549Z,11.80
2018-09-22T17:12:01.965Z,11.70
2018-09-22T17:15:06.267Z,11.60
2018-09-22T17:18:10.569Z,11.50
2018-09-22T17:21:14.900Z,11.40
2018-09-22T17:24:19.250Z,11.30
2018-09-22T17:27:23.567Z,11.20
2018-09-22T17:30:27.897Z,11.20
2018-09-22T17:33:32.318Z,11.40
2018-09-22T17:36:36.632Z,11.40
2018-09-22T17:39:40.966Z,11.40
2018-09-22T17:42:45.232Z,11.40
2018-09-22T17:45:49.878Z,11.40
2018-09-22T17:48:54.202Z,11.40
2018-09-22T17:51:58.565Z,11.30
2018-09-22T17:55:03.120Z,11.20
2018-09-22T17:58:07.436Z,11.20
2018-09-22T18:01:11.806Z,11.10
2018-09-22T18:04:16.242Z,11.00
2018-09-22T18:07:20.534Z,11.00
2018-09-22T18:10:24.808Z,11.00
2018-09-22T18:13:29.397Z,10.90
2018-09-22T18:16:34.390Z,10.90
2018-09-22T18:19:38.954Z,10.90
2018-09-22T18:22:43.318Z,8.60
2018-09-22T18:25:47.635Z,10.80
2018-09-22T18:28:52.050Z,10.70
2018-09-22T18:31:56.473Z,10.70
2018-09-22T18:35:00.943Z,10.70
2018-09-22T18:38:05.297Z,10.70
2018-09-22T18:41:09.608Z,10.80
2018-09-22T18:44:13.977Z,10.80
2018-09-22T18:47:18.488Z,10.80
2018-09-22T18:50:24.495Z,10.80
2018-09-22T18:53:28.846Z,10.80
2018-09-22T18:56:33.358Z,10.90
2018-09-22T18:59:37.877Z,10.90
2018-09-22T19:02:42.425Z,11.00
2018-09-22T19:05:47.036Z,11.10
2018-09-22T19:08:51.489Z,11.10
2018-09-22T19:11:56.035Z,11.00
2018-09-22T19:15:05.898Z,11.00
2018-09-22T19:18:15.775Z,10.90
2018-09-22T19:21:25.073Z,10.90
2018-09-22T19:24:36.126Z,10.80
2018-09-22T19:27:45.799Z,10.80
2018-09-22T19:30:51.485Z,10.60
2018-09-22T19:33:59.022Z,10.60
2018-09-22T19:37:06.941Z,10.60
2018-09-22T19:40:51.603Z,10.60
2018-09-22T19:44:33.211Z,10.50
2018-09-22T19:47:44.607Z,10.50
2018-09-22T19:50:54.233Z,10.50
2018-09-22T19:54:00.558Z,10.40
2018-09-22T19:57:06.797Z,10.40
2018-09-22T20:00:12.411Z,10.40
2018-09-22T20:03:17.685Z,10.30
2018-09-22T20:06:22.931Z,10.30
2018-09-22T20:09:27.415Z,10.30
2018-09-22T20:12:31.893Z,10.30
2018-09-22T20:15:36.310Z,10.30
2018-09-22T20:18:40.722Z,10.20
2018-09-22T20:21:45.198Z,10.30
2018-09-22T20:24:49.547Z,10.30
2018-09-22T20:27:54.046Z,10.30
2018-09-22T20:30:58.516Z,10.30
2018-09-22T20:34:02.851Z,10.30
2018-09-22T20:37:07.256Z,10.30
2018-09-22T20:40:11.665Z,10.20
2018-09-22T20:43:16.097Z,10.10
2018-09-22T20:46:20.451Z,10.10
2018-09-22T20:49:24.763Z,10.00
2018-09-22T20:52:29.182Z,10.00
2018-09-22T20:55:33.517Z,10.00
2018-09-22T20:58:37.828Z,9.90
2018-09-22T21:01:42.324Z,9.80
2018-09-22T21:04:46.703Z,9.80
2018-09-22T21:07:51.095Z,9.80
2018-09-22T21:10:55.380Z,9.80
2018-09-22T21:13:59.719Z,9.90
2018-09-22T21:17:04.021Z,9.90
2018-09-22T21:20:08.369Z,9.90
2018-09-22T21:23:12.672Z,10.00
2018-09-22T21:26:17.016Z,10.00
2018-09-22T21:29:21.302Z,10.10
2018-09-22T21:32:25.592Z,10.10
2018-09-22T21:35:29.866Z,10.10
2018-09-22T21:38:34.195Z,10.20
2018-09-22T21:41:38.533Z,10.20
2018-09-22T21:44:42.815Z,10.10
2018-09-22T21:47:47.077Z,10.20
2018-09-22T21:50:51.405Z,10.20
2018-09-22T21:53:55.713Z,10.20
2018-09-22T21:57:00.044Z,10.30
2018-09-22T22:00:04.499Z,10.30
2018-09-22T22:03:08.789Z,10.40
2018-09-22T22:06:13.219Z,10.40
2018-09-22T22:09:17.607Z,10.60
2018-09-22T22:12:21.889Z,10.50
2018-09-22T22:15:26.248Z,10.60
2018-09-22T22:18:30.567Z,10.60
2018-09-22T22:21:35.163Z,10.60
2018-09-22T22:24:39.438Z,10.60
2018-09-22T22:27:43.721Z,10.50
2018-09-22T22:30:48.009Z,10.40
2018-09-22T22:33:52.957Z,10.30
2018-09-22T22:36:57.324Z,10.20
2018-09-22T22:40:01.645Z,10.10
2018-09-22T22:43:06.013Z,10.00
2018-09-22T22:46:10.422Z,10.00
2018-09-22T22:49:14.708Z,9.90
2018-09-22T22:52:19.069Z,9.80
2018-09-22T22:55:23.449Z,9.70
2018-09-22T22:58:27.770Z,9.70
2018-09-22T23:01:32.093Z,9.70
2018-09-22T23:04:36.566Z,9.60
2018-09-22T23:07:40.847Z,9.60
2018-09-22T23:10:45.292Z,9.60
2018-09-22T23:13:49.602Z,9.60
2018-09-22T23:16:53.901Z,9.50
2018-09-22T23:19:58.363Z,9.50
2018-09-22T23:23:02.643Z,9.50
2018-09-22T23:26:07.072Z,9.40
2018-09-22T23:29:11.308Z,9.40
2018-09-22T23:32:15.607Z,9.40
2018-09-22T23:35:19.933Z,9.40
2018-09-22T23:38:24.284Z,9.40
2018-09-22T23:41:28.578Z,9.40
2018-09-22T23:44:32.893Z,9.40
2018-09-22T23:47:37.230Z,9.40
2018-09-22T23:50:41.558Z,9.30
2018-09-22T23:53:46.815Z,9.30
2018-09-22T23:56:51.067Z,9.30
2018-09-22T23:59:55.313Z,9.30
